Edmonton International Airport
CYEG : now visible

Airfield :











YOU CAN JOIN US ON...

 
LOGIN :

Register | Disclaimer

   EN    FR    IT 

 









Legend :    VFR   Marginal VFR   IFR   Intensive IFR   Very Intensive IFR
Visi :
Ceiling :
>= 8 km
>= 3000ft
5 to 8 km
1000 to 3000 ft
1500m to 5 km
500 to 1000 ft
800 to 1500m
200 to 500 ft
< 800m
< 200 ft
Symbols :   Thunderstorms  Fog  Heavy snow  Heavy precipitations  Wind > 20 kt






- Airport Elevation : 2373 ft
- IATA code : YEG


CYEG - Edmonton International

CURRENT METAR :
  • 141100Z 13010KT 20SM FEW110 BKN170 BKN210 11/07 A2985 RMK AC1AC6CI1 LWR AC TR SLP116 DENSITY ALT 2600FT

EXPIRED METARs :
  • 141000Z 12013KT 20SM FEW110 BKN180 BKN210 13/06 A2986 RMK AC1AC6CI1 CI TR SLP118 DENSITY ALT 2700FT
  • 140900Z 12011KT 20SM FEW110 BKN180 BKN210 12/06 A2989 RMK AC2AC4CI1 SLP129 DENSITY ALT 2700FT
  • 140800Z 12011KT 20SM SCT110 BKN230 12/06 A2991 RMK AC4CI3 SLP135 DENSITY ALT 2700FT
  • 140700Z 12009KT 20SM SCT110 BKN250 12/06 A2992 RMK AC3CI4 SLP141 DENSITY ALT 2600FT

TAF TAF CYEG
Valid from the 14 at 09:00 until the 15 at 06:00 UTC


140841Z 1409/1506 11010KT P6SM SCT110 BKN230
FM141200 13012KT P6SM BKN120 OVC180
BECMG 1414/1416 14012G22KT
FM141800 15012G22KT P6SM SCT080 BKN160
BECMG 1419/1421 26010G20KT
FM142100 26010G20KT P6SM SCT080 BKN140
PROB30 1421/1424 VRB20G30KT 5SM TSRA OVC060CB
FM150100 33010KT P6SM FEW040 SCT100
TEMPO 1501/1503 P6SM -SHRA FEW020 BKN100 RMK NXT FCST BY 141200Z
CZEG FIR / North America



MET'MAP, your aeronautical weather chart ! - Copyright ORBIFLY December 2007 - Disclaimer

ORBIFLY MET'MAP TEAM :

Programming & Development : Alexandra Zaïnal
Original concept : Baudouin d'Aumeries
Technical & hardware support : Manuel Goepfert
Assistance : Marc-Olivier Méhu




SOURCES & CREDITS :

   NOAA       Earth
Advisory